Time;durP1;ratioP1;P1;durP2;ratioP2;P2;SDS_P1;SDS_P2;PMS_P1;PMS_P2;Temp;Humidity;BMP_temperature;BMP_pressure;BME280_temperature;BME280_humidity;BME280_pressure;Samples;Min_cycle;Max_cycle;Signal;HPM_P1;HPM_P2
2023/10/09 00:00:50;;;;;;;14.10;4.77;;;;;;;;;;4970140;28;20464;-69
2023/10/09 00:03:17;;;;;;;13.70;4.07;;;;;;;;;;4968848;28;20956;-69
2023/10/09 00:05:46;;;;;;;6.53;2.93;;;;;;;;;;4968724;28;21008;-69
2023/10/09 00:08:17;;;;;;;9.83;3.63;;;;;;;;;;4969768;28;20460;-70
2023/10/09 00:10:53;;;;;;;7.70;3.90;;;;;;;;;;4968574;28;20442;-69
2023/10/09 00:13:32;;;;;;;23.17;3.33;;;;;;;;;;4967953;28;20473;-69
2023/10/09 00:16:01;;;;;;;12.67;3.17;;;;;;;;;;4957250;28;20590;-69
2023/10/09 00:18:33;;;;;;;16.03;3.50;;;;;;;;;;4949280;28;20847;-70
2023/10/09 00:21:12;;;;;;;10.63;3.77;;;;;;;;;;4947414;29;20565;-70
2023/10/09 00:23:42;;;;;;;16.63;2.90;;;;;;;;;;4948903;29;20545;-69
2023/10/09 00:26:09;;;;;;;21.37;3.30;;;;;;;;;;4948518;29;20441;-70
2023/10/09 00:28:41;;;;;;;8.13;2.47;;;;;;;;;;4948658;28;20443;-69
2023/10/09 00:31:07;;;;;;;6.80;2.47;;;;;;;;;;4947302;29;20609;-69
2023/10/09 00:33:34;;;;;;;4.03;2.97;;;;;;;;;;4929187;29;20458;-69
2023/10/09 00:36:10;;;;;;;17.43;3.77;;;;;;;;;;4948831;29;20478;-68
2023/10/09 00:38:39;;;;;;;20.07;3.47;;;;;;;;;;4948575;28;20453;-70
2023/10/09 00:43:36;;;;;;;16.23;2.90;;;;;;;;;;4947574;29;20461;-69
2023/10/09 00:46:03;;;;;;;14.63;3.00;;;;;;;;;;4948068;29;20439;-69
2023/10/09 00:48:37;;;;;;;15.00;3.00;;;;;;;;;;4948318;28;20446;-69
2023/10/09 00:51:12;;;;;;;15.20;4.07;;;;;;;;;;4948027;29;20441;-69
2023/10/09 00:53:39;;;;;;;6.40;2.80;;;;;;;;;;4948284;29;20457;-70
2023/10/09 00:56:19;;;;;;;15.43;3.53;;;;;;;;;;4947856;29;20532;-69
2023/10/09 00:58:46;;;;;;;16.70;3.60;;;;;;;;;;4948511;28;20425;-69
2023/10/09 01:01:16;;;;;;;16.33;2.90;;;;;;;;;;4947138;29;20447;-69
2023/10/09 01:03:42;;;;;;;15.03;3.57;;;;;;;;;;4947165;29;20526;-68
2023/10/09 01:11:09;;;;;;;10.60;2.93;;;;;;;;;;4948674;28;22315;-69
2023/10/09 01:16:16;;;;;;;10.03;3.60;;;;;;;;;;4948394;28;20509;-69
2023/10/09 01:18:43;;;;;;;11.23;3.40;;;;;;;;;;4949447;29;20809;-69
2023/10/09 01:21:13;;;;;;;6.50;2.80;;;;;;;;;;4951590;29;20483;-69
2023/10/09 01:23:44;;;;;;;6.90;2.93;;;;;;;;;;4947560;28;20438;-69
2023/10/09 01:26:11;;;;;;;16.77;3.07;;;;;;;;;;4946018;29;20494;-69
2023/10/09 01:28:38;;;;;;;16.90;3.50;;;;;;;;;;4948394;29;20438;-70
2023/10/09 01:31:06;;;;;;;14.30;3.57;;;;;;;;;;4947064;29;20450;-70
2023/10/09 01:33:35;;;;;;;17.83;4.47;;;;;;;;;;4949343;29;20847;-69
2023/10/09 01:36:01;;;;;;;6.17;3.13;;;;;;;;;;4951879;28;20467;-69
2023/10/09 01:38:40;;;;;;;16.23;3.90;;;;;;;;;;4949777;29;20865;-70
2023/10/09 01:41:09;;;;;;;10.90;3.00;;;;;;;;;;4947551;29;20903;-69
2023/10/09 01:43:35;;;;;;;5.30;2.70;;;;;;;;;;4948985;29;20525;-69
2023/10/09 01:46:01;;;;;;;12.47;3.17;;;;;;;;;;4933406;29;20514;-68
2023/10/09 01:48:27;;;;;;;16.70;3.30;;;;;;;;;;4951780;29;21204;-69
2023/10/09 01:50:54;;;;;;;10.27;3.77;;;;;;;;;;4947896;28;20453;-69
2023/10/09 01:53:22;;;;;;;10.53;2.60;;;;;;;;;;4949187;28;20443;-70
2023/10/09 01:55:49;;;;;;;6.37;3.07;;;;;;;;;;4947407;29;20490;-68
2023/10/09 02:00:56;;;;;;;10.50;3.60;;;;;;;;;;4947011;29;20458;-69
2023/10/09 02:03:23;;;;;;;10.83;3.50;;;;;;;;;;4946762;29;20470;-70
2023/10/09 02:05:51;;;;;;;11.73;3.00;;;;;;;;;;4946372;29;20451;-69
2023/10/09 02:08:21;;;;;;;6.87;3.30;;;;;;;;;;4946896;28;20438;-70
2023/10/09 02:10:48;;;;;;;11.53;4.20;;;;;;;;;;4946184;28;20443;-70
2023/10/09 02:13:16;;;;;;;5.73;3.53;;;;;;;;;;4946898;29;20477;-69
2023/10/09 02:21:39;;;;;;;2.67;2.57;;;;;;;;;;4946995;28;20864;-70
2023/10/09 02:26:19;;;;;;;8.03;4.10;;;;;;;;;;4946144;29;21670;-69
2023/10/09 02:28:52;;;;;;;8.97;4.00;;;;;;;;;;4946131;29;20553;-69
2023/10/09 02:31:21;;;;;;;17.90;3.23;;;;;;;;;;4946070;29;20435;-69
2023/10/09 02:33:50;;;;;;;9.30;3.63;;;;;;;;;;4946993;28;20455;-68
2023/10/09 02:36:16;;;;;;;12.20;4.13;;;;;;;;;;4928691;29;20487;-69
2023/10/09 02:38:43;;;;;;;4.00;3.10;;;;;;;;;;4926360;29;20438;-68
2023/10/09 02:43:46;;;;;;;11.03;3.43;;;;;;;;;;4946016;29;20434;-69
2023/10/09 02:48:50;;;;;;;6.03;3.60;;;;;;;;;;4945880;29;20550;-68
2023/10/09 02:52:06;;;;;;;8.40;3.37;;;;;;;;;;4946223;29;20494;-69
2023/10/09 02:57:15;;;;;;;12.80;3.67;;;;;;;;;;4945868;29;20549;-68
2023/10/09 02:59:41;;;;;;;7.70;3.77;;;;;;;;;;4928517;29;20986;-69
2023/10/09 03:02:07;;;;;;;8.43;2.63;;;;;;;;;;4945373;29;20505;-68
2023/10/09 03:04:33;;;;;;;16.93;3.87;;;;;;;;;;4946550;29;20970;-68
2023/10/09 03:07:00;;;;;;;16.00;3.53;;;;;;;;;;4945777;29;20793;-68
2023/10/09 03:09:27;;;;;;;4.63;2.30;;;;;;;;;;4946376;29;20583;-69
2023/10/09 03:11:54;;;;;;;4.60;2.80;;;;;;;;;;4946515;28;20438;-68
2023/10/09 03:14:26;;;;;;;10.40;2.87;;;;;;;;;;4945246;29;20943;-68
2023/10/09 03:16:52;;;;;;;9.30;3.40;;;;;;;;;;4945166;28;20529;-68
2023/10/09 03:19:18;;;;;;;9.03;3.00;;;;;;;;;;4945373;29;20449;-69
2023/10/09 03:21:44;;;;;;;21.27;3.40;;;;;;;;;;4922419;29;20458;-70
2023/10/09 03:24:11;;;;;;;10.60;3.50;;;;;;;;;;4945128;28;20491;-69
2023/10/09 03:26:37;;;;;;;22.20;3.80;;;;;;;;;;4945808;29;20462;-69
2023/10/09 03:29:06;;;;;;;14.37;4.20;;;;;;;;;;4927439;29;20435;-69
2023/10/09 03:31:36;;;;;;;8.00;3.40;;;;;;;;;;4945426;29;20439;-69
2023/10/09 03:34:02;;;;;;;22.47;4.47;;;;;;;;;;4945976;29;20426;-69
2023/10/09 03:36:30;;;;;;;3.63;2.53;;;;;;;;;;4945612;28;20581;-68
2023/10/09 03:38:57;;;;;;;14.70;3.27;;;;;;;;;;4945347;29;20445;-69
2023/10/09 03:41:26;;;;;;;21.17;3.00;;;;;;;;;;4946392;29;20433;-68
2023/10/09 03:43:52;;;;;;;13.13;3.20;;;;;;;;;;4945173;29;20837;-68
2023/10/09 03:46:22;;;;;;;9.73;3.90;;;;;;;;;;4945068;28;20513;-69
2023/10/09 03:48:49;;;;;;;13.83;3.63;;;;;;;;;;4948771;28;20541;-68
2023/10/09 03:51:21;;;;;;;8.07;3.10;;;;;;;;;;4949094;29;20474;-68
2023/10/09 03:53:47;;;;;;;13.90;3.87;;;;;;;;;;4948895;29;20443;-69
2023/10/09 03:56:15;;;;;;;9.70;3.53;;;;;;;;;;4949613;28;20493;-69
2023/10/09 03:58:44;;;;;;;10.47;3.57;;;;;;;;;;4930908;29;20447;-69
2023/10/09 04:01:22;;;;;;;5.70;2.93;;;;;;;;;;4951150;28;20434;-68
2023/10/09 04:03:48;;;;;;;10.03;2.90;;;;;;;;;;4950936;29;20501;-69
2023/10/09 04:06:17;;;;;;;8.83;3.60;;;;;;;;;;4952006;29;20434;-69
2023/10/09 04:08:46;;;;;;;4.37;3.10;;;;;;;;;;4931724;29;20920;-68
2023/10/09 04:11:16;;;;;;;21.60;3.53;;;;;;;;;;4950203;29;20441;-69
2023/10/09 04:13:45;;;;;;;16.47;3.63;;;;;;;;;;4948362;28;20449;-68
2023/10/09 04:16:28;;;;;;;14.37;2.80;;;;;;;;;;4948812;28;20482;-69
2023/10/09 04:18:57;;;;;;;8.03;3.20;;;;;;;;;;4952137;29;20453;-69
2023/10/09 04:21:35;;;;;;;3.90;2.13;;;;;;;;;;4949478;29;20537;-69
2023/10/09 04:26:44;;;;;;;11.80;3.57;;;;;;;;;;4950942;28;20458;-69
2023/10/09 04:29:10;;;;;;;7.17;3.60;;;;;;;;;;4947054;29;20443;-69
2023/10/09 04:31:39;;;;;;;11.83;4.83;;;;;;;;;;4946859;29;20458;-68
2023/10/09 04:36:53;;;;;;;11.83;3.87;;;;;;;;;;4949330;29;20930;-69
2023/10/09 04:44:39;;;;;;;9.13;3.37;;;;;;;;;;4949309;29;20441;-69
2023/10/09 04:50:02;;;;;;;9.10;3.90;;;;;;;;;;4947791;29;20542;-69
2023/10/09 05:03:06;;;;;;;7.70;3.40;;;;;;;;;;4946952;28;20450;-69
2023/10/09 05:16:07;;;;;;;10.27;3.10;;;;;;;;;;4947282;28;20561;-69
2023/10/09 05:18:36;;;;;;;15.47;8.13;;;;;;;;;;4947636;29;20566;-68
2023/10/09 05:21:52;;;;;;;15.20;5.10;;;;;;;;;;4948017;29;20872;-68
2023/10/09 05:32:03;;;;;;;8.10;4.20;;;;;;;;;;4947648;28;21009;-69
2023/10/09 05:34:36;;;;;;;3.53;3.23;;;;;;;;;;4945155;29;21105;-69
2023/10/09 05:37:17;;;;;;;10.70;3.50;;;;;;;;;;4946862;29;20498;-68
2023/10/09 05:39:58;;;;;;;23.87;3.80;;;;;;;;;;4928920;29;20439;-69
2023/10/09 05:42:29;;;;;;;6.70;3.70;;;;;;;;;;4948800;29;20513;-69
2023/10/09 05:47:53;;;;;;;12.37;3.47;;;;;;;;;;4946529;29;20450;-70
2023/10/09 05:56:22;;;;;;;14.33;4.33;;;;;;;;;;4948181;29;20489;-68
2023/10/09 06:14:14;;;;;;;8.80;3.63;;;;;;;;;;4946249;29;20928;-68
2023/10/09 06:19:11;;;;;;;12.60;4.43;;;;;;;;;;4965629;28;20480;-73
2023/10/09 06:24:23;;;;;;;19.50;5.77;;;;;;;;;;4964114;28;20445;-69
2023/10/09 06:29:35;;;;;;;8.87;4.37;;;;;;;;;;4964849;28;20422;-70
2023/10/09 06:34:51;;;;;;;10.83;3.97;;;;;;;;;;4964562;28;20433;-68
2023/10/09 06:37:34;;;;;;;12.30;4.50;;;;;;;;;;4963922;28;20493;-69
2023/10/09 06:45:08;;;;;;;7.57;4.50;;;;;;;;;;4964074;28;20540;-70
2023/10/09 06:47:55;;;;;;;10.43;4.10;;;;;;;;;;4965557;28;20434;-70
2023/10/09 06:55:51;;;;;;;14.67;4.10;;;;;;;;;;4965738;28;20472;-70
2023/10/09 06:58:27;;;;;;;9.67;3.70;;;;;;;;;;4968645;28;20453;-69
2023/10/09 07:03:51;;;;;;;7.80;3.63;;;;;;;;;;4969403;28;20585;-70
2023/10/09 07:06:24;;;;;;;11.97;4.57;;;;;;;;;;4968244;28;20448;-69
2023/10/09 07:17:01;;;;;;;34.80;15.87;;;;;;;;;;4951142;28;20613;-70
2023/10/09 07:22:03;;;;;;;3.30;3.00;;;;;;;;;;4949905;28;20442;-69
2023/10/09 07:24:43;;;;;;;8.90;3.97;;;;;;;;;;4954981;29;20908;-69
2023/10/09 07:27:12;;;;;;;5.00;2.87;;;;;;;;;;4954340;29;20951;-69
2023/10/09 07:29:47;;;;;;;21.90;10.40;;;;;;;;;;4952611;29;20457;-69
2023/10/09 07:32:22;;;;;;;20.30;12.60;;;;;;;;;;4954030;28;20429;-69
2023/10/09 07:34:57;;;;;;;11.23;4.10;;;;;;;;;;4954440;29;20481;-69
2023/10/09 07:37:34;;;;;;;26.63;14.97;;;;;;;;;;4937569;29;20589;-69
2023/10/09 07:40:07;;;;;;;16.17;4.57;;;;;;;;;;4954148;29;20876;-69
2023/10/09 07:48:05;;;;;;;10.73;3.60;;;;;;;;;;4923907;29;20490;-70
2023/10/09 07:50:57;;;;;;;12.60;3.70;;;;;;;;;;4952772;29;20537;-68
2023/10/09 07:53:26;;;;;;;11.40;4.10;;;;;;;;;;4953644;29;20427;-68
2023/10/09 07:56:06;;;;;;;8.37;2.60;;;;;;;;;;4952355;29;20478;-70
2023/10/09 07:58:33;;;;;;;9.53;3.90;;;;;;;;;;4954736;28;21003;-70
2023/10/09 08:01:15;;;;;;;12.47;6.57;;;;;;;;;;4952338;29;20947;-68
2023/10/09 08:03:45;;;;;;;14.57;4.20;;;;;;;;;;4948592;29;20431;-69
2023/10/09 08:14:42;;;;;;;36.50;18.40;;;;;;;;;;4949981;29;20473;-69
2023/10/09 08:20:12;;;;;;;34.13;16.53;;;;;;;;;;4935732;29;20513;-63
2023/10/09 08:22:42;;;;;;;25.53;14.70;;;;;;;;;;4948052;28;20998;-62
2023/10/09 08:25:25;;;;;;;34.33;16.17;;;;;;;;;;4949286;28;20439;-69
2023/10/09 08:27:54;;;;;;;23.03;9.57;;;;;;;;;;4935456;29;20461;-71
2023/10/09 08:30:40;;;;;;;41.40;8.33;;;;;;;;;;4931449;29;20837;-70
2023/10/09 08:35:51;;;;;;;10.80;4.10;;;;;;;;;;4948258;28;20540;-69
2023/10/09 08:38:24;;;;;;;22.00;5.47;;;;;;;;;;4950486;28;20526;-69
2023/10/09 08:40:51;;;;;;;14.53;5.93;;;;;;;;;;4953874;29;20419;-69
2023/10/09 08:43:20;;;;;;;26.53;7.07;;;;;;;;;;4952875;29;20442;-69
2023/10/09 08:45:47;;;;;;;27.63;6.30;;;;;;;;;;4950707;29;20442;-69
2023/10/09 08:48:17;;;;;;;13.30;5.60;;;;;;;;;;4934087;29;20485;-69
2023/10/09 08:50:44;;;;;;;23.73;5.50;;;;;;;;;;4953738;29;20419;-69
2023/10/09 08:53:11;;;;;;;8.97;4.03;;;;;;;;;;4947919;29;20446;-69
2023/10/09 08:55:40;;;;;;;16.40;3.20;;;;;;;;;;4948707;29;20531;-69
2023/10/09 08:58:15;;;;;;;4.20;3.20;;;;;;;;;;4949094;29;20992;-69
2023/10/09 09:00:45;;;;;;;11.93;4.10;;;;;;;;;;4932918;29;20800;-69
2023/10/09 09:03:22;;;;;;;13.27;3.60;;;;;;;;;;4951229;29;20443;-69
2023/10/09 09:05:51;;;;;;;20.60;3.83;;;;;;;;;;4948717;28;20444;-69
2023/10/09 09:08:25;;;;;;;9.10;3.30;;;;;;;;;;4952707;29;20435;-74
2023/10/09 09:10:59;;;;;;;8.37;2.20;;;;;;;;;;4950914;29;20445;-71
2023/10/09 09:13:31;;;;;;;10.70;3.00;;;;;;;;;;4951722;28;20513;-69
2023/10/09 09:15:57;;;;;;;9.50;4.03;;;;;;;;;;4950386;28;20507;-69
2023/10/09 09:18:23;;;;;;;9.10;2.90;;;;;;;;;;4948463;29;20435;-69
2023/10/09 09:20:53;;;;;;;9.93;3.97;;;;;;;;;;4950626;29;20465;-69
2023/10/09 09:23:23;;;;;;;9.83;3.70;;;;;;;;;;4950986;29;20441;-69
2023/10/09 09:25:59;;;;;;;7.90;3.47;;;;;;;;;;4950208;28;20935;-69
2023/10/09 09:28:26;;;;;;;6.80;3.60;;;;;;;;;;4951804;28;20930;-69
2023/10/09 09:30:54;;;;;;;7.37;2.90;;;;;;;;;;4951813;29;20453;-69
2023/10/09 09:33:26;;;;;;;9.60;3.37;;;;;;;;;;4951362;28;20435;-69
2023/10/09 09:36:02;;;;;;;15.00;3.20;;;;;;;;;;4951941;29;20622;-70
2023/10/09 09:38:29;;;;;;;11.70;2.97;;;;;;;;;;4949773;29;20485;-69
2023/10/09 09:40:57;;;;;;;11.47;2.93;;;;;;;;;;4946687;29;20438;-69
2023/10/09 09:43:25;;;;;;;15.47;4.87;;;;;;;;;;4932095;29;20449;-69
2023/10/09 09:45:56;;;;;;;23.60;5.50;;;;;;;;;;4946919;28;20843;-69
2023/10/09 09:48:23;;;;;;;9.67;6.20;;;;;;;;;;4948792;29;20446;-69
2023/10/09 09:50:54;;;;;;;23.60;5.83;;;;;;;;;;4951229;28;20926;-69
2023/10/09 09:53:23;;;;;;;17.07;6.73;;;;;;;;;;4948165;28;20482;-69
2023/10/09 09:55:57;;;;;;;19.67;4.67;;;;;;;;;;4947832;28;20907;-70
2023/10/09 09:58:23;;;;;;;18.17;4.80;;;;;;;;;;4947195;29;20877;-69
2023/10/09 10:00:54;;;;;;;17.13;3.50;;;;;;;;;;4947472;29;20493;-69
2023/10/09 10:03:22;;;;;;;3.70;2.73;;;;;;;;;;4930622;29;20445;-69
2023/10/09 10:05:51;;;;;;;13.30;3.03;;;;;;;;;;4931188;29;20497;-69
2023/10/09 10:08:19;;;;;;;18.70;4.07;;;;;;;;;;4948285;28;20439;-69
2023/10/09 10:10:53;;;;;;;9.40;2.30;;;;;;;;;;4934709;29;20435;-69
2023/10/09 10:13:42;;;;;;;10.20;2.90;;;;;;;;;;4947210;29;20431;-71
2023/10/09 10:16:13;;;;;;;16.83;3.03;;;;;;;;;;4948970;28;20528;-71
2023/10/09 10:19:40;;;;;;;13.53;2.60;;;;;;;;;;4969111;28;20453;-69
2023/10/09 10:21:41;;;;;;;12.70;3.93;;;;;;;;;;4959756;28;20453;-69
2023/10/09 10:24:35;;;;;;;10.00;3.20;;;;;;;;;;4968178;28;20450;-69
2023/10/09 10:27:17;;;;;;;5.93;2.70;;;;;;;;;;4967844;28;20436;-70
2023/10/09 10:29:46;;;;;;;12.37;2.70;;;;;;;;;;4969443;28;20437;-70
2023/10/09 10:32:12;;;;;;;3.47;3.17;;;;;;;;;;4968752;28;20446;-70
2023/10/09 10:34:55;;;;;;;8.90;3.60;;;;;;;;;;4970502;28;20489;-69
2023/10/09 10:37:28;;;;;;;4.93;2.80;;;;;;;;;;4968105;28;20989;-69
2023/10/09 10:39:59;;;;;;;14.63;3.57;;;;;;;;;;4970213;28;20453;-70
2023/10/09 10:42:34;;;;;;;14.10;3.60;;;;;;;;;;4966797;28;20642;-70
2023/10/09 10:45:02;;;;;;;13.03;3.00;;;;;;;;;;4970105;28;20529;-71
2023/10/09 10:47:34;;;;;;;17.70;3.20;;;;;;;;;;4970554;28;20444;-70
2023/10/09 10:50:16;;;;;;;9.33;3.53;;;;;;;;;;4970706;28;20437;-69
2023/10/09 10:52:41;;;;;;;11.67;3.00;;;;;;;;;;4970901;28;20489;-69
2023/10/09 10:55:17;;;;;;;1.80;1.70;;;;;;;;;;4968946;28;21406;-71
2023/10/09 11:03:29;;;;;;;20.87;3.13;;;;;;;;;;4969105;28;20480;-69
2023/10/09 11:05:56;;;;;;;10.27;3.10;;;;;;;;;;4968014;28;20460;-69
2023/10/09 11:08:32;;;;;;;20.13;3.00;;;;;;;;;;4967610;28;20745;-69
2023/10/09 11:11:15;;;;;;;16.33;3.80;;;;;;;;;;4966397;28;20453;-68
2023/10/09 11:13:53;;;;;;;8.83;3.00;;;;;;;;;;4966580;28;20542;-70
2023/10/09 11:16:41;;;;;;;12.73;3.50;;;;;;;;;;4952988;28;20486;-72
2023/10/09 11:22:28;;;;;;;9.53;3.00;;;;;;;;;;4947708;29;20510;-70
2023/10/09 11:24:40;;;;;;;6.43;2.20;;;;;;;;;;4948419;28;20462;-69
2023/10/09 11:27:06;;;;;;;9.63;3.17;;;;;;;;;;4948613;29;20438;-69
2023/10/09 11:32:17;;;;;;;8.87;2.37;;;;;;;;;;4950595;29;20922;-69
2023/10/09 11:34:51;;;;;;;13.60;2.93;;;;;;;;;;4950406;28;20443;-68
2023/10/09 11:39:56;;;;;;;5.37;2.50;;;;;;;;;;4948551;28;20423;-69
2023/10/09 11:42:48;;;;;;;6.93;1.80;;;;;;;;;;4950113;29;20442;-68
2023/10/09 11:45:24;;;;;;;14.07;5.40;;;;;;;;;;4950074;29;20844;-70
2023/10/09 11:48:05;;;;;;;26.37;2.80;;;;;;;;;;4950952;29;20430;-71
2023/10/09 11:50:43;;;;;;;23.13;3.87;;;;;;;;;;4941936;28;20447;-68
2023/10/09 11:56:09;;;;;;;4.90;2.90;;;;;;;;;;4928159;29;20487;-70
2023/10/09 11:58:39;;;;;;;7.73;3.40;;;;;;;;;;4948014;29;20854;-68
2023/10/09 12:01:16;;;;;;;18.33;6.90;;;;;;;;;;4948740;28;20435;-68
2023/10/09 12:03:42;;;;;;;7.23;3.90;;;;;;;;;;4946195;29;20464;-68
2023/10/09 12:06:12;;;;;;;15.33;7.83;;;;;;;;;;4931240;29;20446;-68
2023/10/09 12:08:40;;;;;;;11.70;5.03;;;;;;;;;;4948662;28;20461;-68
2023/10/09 12:11:11;;;;;;;13.40;3.40;;;;;;;;;;4950371;29;20442;-68
2023/10/09 12:13:38;;;;;;;12.77;3.07;;;;;;;;;;4952224;28;20461;-69
2023/10/09 12:16:10;;;;;;;7.50;1.77;;;;;;;;;;4952485;28;20839;-69
2023/10/09 12:18:39;;;;;;;6.33;2.00;;;;;;;;;;4948379;29;20538;-68
2023/10/09 12:21:06;;;;;;;13.73;3.90;;;;;;;;;;4952168;29;20438;-69
2023/10/09 12:23:38;;;;;;;17.50;3.63;;;;;;;;;;4953557;29;20457;-68
2023/10/09 12:26:04;;;;;;;2.93;1.70;;;;;;;;;;4952213;28;20436;-69
2023/10/09 12:28:32;;;;;;;5.53;2.03;;;;;;;;;;4951160;29;20442;-68
2023/10/09 12:31:01;;;;;;;15.73;4.47;;;;;;;;;;4952104;29;20497;-68
2023/10/09 12:33:30;;;;;;;10.87;3.30;;;;;;;;;;4952860;29;20467;-68
2023/10/09 12:36:00;;;;;;;22.30;5.00;;;;;;;;;;4953132;29;20834;-68
2023/10/09 12:38:32;;;;;;;27.50;3.00;;;;;;;;;;4935540;28;20485;-69
2023/10/09 12:41:07;;;;;;;10.87;2.70;;;;;;;;;;4952100;28;20431;-75
2023/10/09 12:43:37;;;;;;;38.17;22.20;;;;;;;;;;4952971;29;20919;-73
2023/10/09 12:46:06;;;;;;;40.00;7.03;;;;;;;;;;4951266;29;20438;-70
2023/10/09 12:48:32;;;;;;;6.43;3.03;;;;;;;;;;4952992;29;20493;-71
2023/10/09 12:50:58;;;;;;;17.20;3.67;;;;;;;;;;4953048;28;20423;-72
2023/10/09 12:53:28;;;;;;;12.60;3.20;;;;;;;;;;4947262;28;20463;-70
2023/10/09 12:55:56;;;;;;;6.07;2.50;;;;;;;;;;4947602;28;20496;-72
2023/10/09 12:58:26;;;;;;;5.97;1.83;;;;;;;;;;4948924;28;20546;-72
2023/10/09 13:00:52;;;;;;;5.20;3.43;;;;;;;;;;4952497;29;20459;-70
2023/10/09 13:03:19;;;;;;;15.10;3.47;;;;;;;;;;4947772;28;20483;-69
2023/10/09 13:05:54;;;;;;;10.50;3.10;;;;;;;;;;4949804;28;20431;-70
2023/10/09 13:08:36;;;;;;;13.50;3.73;;;;;;;;;;4951988;29;20469;-69
2023/10/09 13:11:12;;;;;;;13.50;3.90;;;;;;;;;;4947310;29;20510;-72
2023/10/09 13:13:43;;;;;;;13.60;3.40;;;;;;;;;;4949599;29;20978;-70
2023/10/09 13:16:14;;;;;;;6.30;2.67;;;;;;;;;;4951445;28;20497;-70
2023/10/09 13:18:41;;;;;;;9.43;3.30;;;;;;;;;;4968521;28;20449;-69
2023/10/09 13:21:07;;;;;;;4.37;2.20;;;;;;;;;;4969682;28;20462;-71
2023/10/09 13:23:39;;;;;;;14.70;3.40;;;;;;;;;;4968083;28;21017;-70
2023/10/09 13:26:17;;;;;;;9.73;2.90;;;;;;;;;;4969704;28;20437;-69
2023/10/09 13:28:47;;;;;;;30.90;3.87;;;;;;;;;;4970058;28;20442;-70
2023/10/09 13:31:14;;;;;;;11.37;2.53;;;;;;;;;;4983584;28;20824;-69
2023/10/09 13:33:40;;;;;;;7.90;2.23;;;;;;;;;;4969478;28;20457;-69
2023/10/09 13:36:16;;;;;;;8.73;3.00;;;;;;;;;;4968525;28;20489;-69
2023/10/09 13:38:45;;;;;;;13.60;3.27;;;;;;;;;;4966053;28;20449;-60
2023/10/09 13:41:17;;;;;;;5.90;2.80;;;;;;;;;;4968058;28;20447;-61
2023/10/09 13:43:44;;;;;;;2.57;1.77;;;;;;;;;;4967512;28;20442;-60
2023/10/09 13:46:12;;;;;;;14.23;3.03;;;;;;;;;;4966049;28;20442;-60
2023/10/09 13:48:41;;;;;;;6.10;2.73;;;;;;;;;;4963728;28;20485;-67
2023/10/09 13:51:09;;;;;;;18.53;3.10;;;;;;;;;;4965824;28;20430;-62
2023/10/09 13:53:36;;;;;;;7.17;2.50;;;;;;;;;;4967555;28;20441;-60
2023/10/09 13:56:06;;;;;;;9.43;2.63;;;;;;;;;;4966767;28;21001;-61
2023/10/09 13:58:32;;;;;;;6.87;2.47;;;;;;;;;;4965634;28;20934;-61
2023/10/09 14:00:58;;;;;;;10.03;2.77;;;;;;;;;;4965910;28;20947;-64
2023/10/09 14:03:27;;;;;;;11.13;3.90;;;;;;;;;;4966385;28;20448;-61
2023/10/09 14:05:56;;;;;;;3.03;2.47;;;;;;;;;;4965817;28;20433;-65
2023/10/09 14:08:23;;;;;;;3.20;1.80;;;;;;;;;;4964832;28;20460;-60
2023/10/09 14:10:49;;;;;;;12.80;3.83;;;;;;;;;;4965885;28;20429;-61
2023/10/09 14:13:25;;;;;;;16.17;2.77;;;;;;;;;;4965869;28;20457;-68
2023/10/09 14:15:54;;;;;;;12.63;3.67;;;;;;;;;;4964128;28;20493;-64
2023/10/09 14:18:20;;;;;;;16.23;3.97;;;;;;;;;;4963670;28;20461;-63
2023/10/09 14:20:46;;;;;;;10.50;2.53;;;;;;;;;;4964561;28;20489;-63
2023/10/09 14:23:20;;;;;;;16.87;3.27;;;;;;;;;;4966409;28;20453;-60
2023/10/09 14:25:49;;;;;;;12.80;3.67;;;;;;;;;;4966167;28;20958;-64
2023/10/09 14:28:18;;;;;;;14.93;3.40;;;;;;;;;;4964987;28;20450;-62
2023/10/09 14:30:46;;;;;;;9.17;3.00;;;;;;;;;;4966013;28;20524;-65
2023/10/09 14:33:12;;;;;;;16.53;3.17;;;;;;;;;;4965953;28;20441;-63
2023/10/09 14:35:39;;;;;;;11.87;2.30;;;;;;;;;;4965910;28;20497;-61
2023/10/09 14:38:12;;;;;;;32.17;4.27;;;;;;;;;;4966223;28;20457;-59
2023/10/09 14:40:41;;;;;;;22.70;2.07;;;;;;;;;;4964948;28;20993;-60
2023/10/09 14:43:08;;;;;;;12.93;3.47;;;;;;;;;;4965323;28;20430;-60
2023/10/09 14:45:37;;;;;;;9.37;3.00;;;;;;;;;;4964343;28;20485;-60
2023/10/09 14:48:03;;;;;;;11.40;4.30;;;;;;;;;;4963573;28;20445;-60
2023/10/09 14:50:29;;;;;;;11.03;3.57;;;;;;;;;;4965352;28;20462;-60
2023/10/09 14:52:55;;;;;;;18.97;4.03;;;;;;;;;;4964476;28;20488;-70
2023/10/09 14:55:21;;;;;;;10.37;3.30;;;;;;;;;;4963944;28;20450;-69
2023/10/09 14:57:53;;;;;;;8.53;3.43;;;;;;;;;;4961966;28;20497;-69
2023/10/09 15:00:22;;;;;;;14.03;3.80;;;;;;;;;;4963756;28;20488;-70
2023/10/09 15:02:50;;;;;;;13.47;2.70;;;;;;;;;;4968441;28;20469;-68
2023/10/09 15:05:16;;;;;;;9.53;3.47;;;;;;;;;;4969157;28;20442;-68
2023/10/09 15:07:42;;;;;;;9.60;3.43;;;;;;;;;;4969906;28;20449;-69
2023/10/09 15:10:15;;;;;;;13.07;3.63;;;;;;;;;;4969559;28;20453;-69
2023/10/09 15:12:42;;;;;;;6.53;3.20;;;;;;;;;;4969390;28;20946;-69
2023/10/09 15:15:13;;;;;;;16.27;3.70;;;;;;;;;;4968042;28;20510;-69
2023/10/09 15:17:43;;;;;;;13.37;3.00;;;;;;;;;;4930280;28;21514;-69
2023/10/09 15:20:13;;;;;;;10.03;3.30;;;;;;;;;;4945602;29;20485;-68
2023/10/09 15:22:39;;;;;;;11.10;3.60;;;;;;;;;;4945709;28;21526;-69
2023/10/09 15:25:06;;;;;;;12.23;3.20;;;;;;;;;;4946227;29;20493;-68
2023/10/09 15:27:32;;;;;;;7.13;2.17;;;;;;;;;;4949636;29;21073;-68
2023/10/09 15:29:57;;;;;;;12.10;4.03;;;;;;;;;;4949997;28;20506;-68
2023/10/09 15:32:24;;;;;;;11.00;3.50;;;;;;;;;;4951358;28;20431;-68
2023/10/09 15:34:55;;;;;;;21.20;4.10;;;;;;;;;;4949961;29;20434;-68
2023/10/09 15:37:22;;;;;;;13.83;3.63;;;;;;;;;;4950810;28;20489;-69
2023/10/09 15:39:49;;;;;;;13.30;2.53;;;;;;;;;;4944506;28;20438;-71
2023/10/09 15:42:16;;;;;;;10.13;3.47;;;;;;;;;;4947376;28;20447;-69
2023/10/09 15:44:42;;;;;;;2.27;2.03;;;;;;;;;;4952192;29;20451;-71
2023/10/09 15:47:08;;;;;;;18.57;5.00;;;;;;;;;;4950361;28;20865;-70
2023/10/09 15:49:37;;;;;;;10.83;2.70;;;;;;;;;;4948677;29;20432;-69
2023/10/09 15:52:03;;;;;;;10.07;3.50;;;;;;;;;;4946805;28;20497;-70
2023/10/09 15:54:29;;;;;;;14.03;3.23;;;;;;;;;;4950922;28;20446;-69
2023/10/09 15:56:56;;;;;;;10.43;4.77;;;;;;;;;;4948617;29;20493;-68
2023/10/09 15:59:24;;;;;;;11.90;3.87;;;;;;;;;;4948805;28;20442;-71
2023/10/09 16:01:51;;;;;;;10.03;3.93;;;;;;;;;;4950486;29;20497;-69
2023/10/09 16:04:17;;;;;;;13.63;4.30;;;;;;;;;;4949970;28;21006;-69
2023/10/09 16:06:43;;;;;;;15.97;3.50;;;;;;;;;;4949238;29;20537;-68
2023/10/09 16:09:11;;;;;;;10.90;3.77;;;;;;;;;;4946944;28;21745;-70
2023/10/09 16:11:39;;;;;;;13.63;4.20;;;;;;;;;;4930357;29;20434;-68
2023/10/09 16:14:09;;;;;;;18.97;4.40;;;;;;;;;;4947765;29;20952;-68
2023/10/09 16:16:41;;;;;;;10.47;5.10;;;;;;;;;;4949170;28;20491;-69
2023/10/09 16:19:09;;;;;;;4.03;2.20;;;;;;;;;;4933492;29;20486;-68
2023/10/09 16:21:35;;;;;;;13.30;5.70;;;;;;;;;;4950526;29;20431;-69
2023/10/09 16:24:01;;;;;;;13.23;4.40;;;;;;;;;;4948369;29;20810;-69
2023/10/09 16:26:28;;;;;;;24.53;6.33;;;;;;;;;;4948369;28;20462;-68
2023/10/09 16:28:54;;;;;;;16.00;5.03;;;;;;;;;;4950079;29;20454;-69
2023/10/09 16:31:20;;;;;;;13.60;5.40;;;;;;;;;;4948975;29;20990;-70
2023/10/09 16:33:50;;;;;;;6.57;3.20;;;;;;;;;;4948575;28;20447;-69
2023/10/09 16:36:16;;;;;;;35.63;4.30;;;;;;;;;;4949853;28;20478;-72
2023/10/09 16:38:43;;;;;;;16.60;3.17;;;;;;;;;;4948000;29;20505;-68
2023/10/09 16:41:09;;;;;;;15.37;4.67;;;;;;;;;;4947261;29;20482;-68
2023/10/09 16:43:42;;;;;;;10.60;2.80;;;;;;;;;;4944047;28;21758;-69
2023/10/09 16:46:08;;;;;;;18.83;4.70;;;;;;;;;;4952439;29;20431;-68
2023/10/09 16:48:37;;;;;;;9.83;2.83;;;;;;;;;;4957221;29;20830;-68
2023/10/09 16:51:06;;;;;;;24.60;4.50;;;;;;;;;;4957053;29;20419;-68
2023/10/09 16:53:36;;;;;;;13.43;4.10;;;;;;;;;;4956494;28;20438;-69
2023/10/09 16:56:04;;;;;;;6.33;2.83;;;;;;;;;;4957099;29;20470;-68
2023/10/09 16:58:35;;;;;;;14.43;4.90;;;;;;;;;;4957157;29;20416;-68
2023/10/09 17:01:03;;;;;;;13.73;2.70;;;;;;;;;;4957066;29;20466;-68
2023/10/09 17:03:29;;;;;;;4.90;2.93;;;;;;;;;;4956892;29;20924;-68
2023/10/09 17:05:55;;;;;;;7.87;3.47;;;;;;;;;;4956852;29;20505;-68
2023/10/09 17:08:22;;;;;;;4.70;3.10;;;;;;;;;;4956935;29;20835;-68
2023/10/09 17:10:51;;;;;;;3.63;2.57;;;;;;;;;;4956787;29;20945;-68
2023/10/09 17:13:20;;;;;;;6.73;3.27;;;;;;;;;;4956730;29;20439;-68
2023/10/09 17:15:49;;;;;;;9.60;3.50;;;;;;;;;;4956488;28;20515;-68
2023/10/09 17:18:15;;;;;;;7.70;3.07;;;;;;;;;;4956762;29;20427;-69
2023/10/09 17:20:48;;;;;;;14.10;4.33;;;;;;;;;;4938941;29;20423;-68
2023/10/09 17:23:15;;;;;;;14.50;5.40;;;;;;;;;;4956280;29;20426;-68
2023/10/09 17:25:44;;;;;;;7.53;4.73;;;;;;;;;;4956358;29;20426;-68
2023/10/09 17:28:14;;;;;;;8.17;3.97;;;;;;;;;;4956315;29;20474;-68
2023/10/09 17:30:41;;;;;;;12.83;3.97;;;;;;;;;;4956751;29;20407;-68
2023/10/09 17:33:07;;;;;;;12.60;3.77;;;;;;;;;;4956322;29;20423;-68
2023/10/09 17:35:34;;;;;;;5.50;2.30;;;;;;;;;;4955994;29;20828;-68
2023/10/09 17:38:00;;;;;;;16.23;5.43;;;;;;;;;;4956194;29;20474;-68